createdAt,value
2019-06-08T00:00:55.237Z,60.00
2019-06-08T00:03:23.751Z,60.00
2019-06-08T00:05:52.328Z,59.90
2019-06-08T00:08:21.023Z,59.90
2019-06-08T00:10:52.844Z,59.90
2019-06-08T00:13:30.507Z,60.00
2019-06-08T00:15:59.344Z,59.90
2019-06-08T00:18:30.055Z,59.90
2019-06-08T00:21:03.844Z,59.90
2019-06-08T00:23:32.511Z,59.90
2019-06-08T00:26:01.090Z,59.90
2019-06-08T00:28:34.256Z,59.90
2019-06-08T00:31:03.057Z,59.90
2019-06-08T00:33:31.690Z,59.90
2019-06-08T00:36:00.274Z,60.00
2019-06-08T00:38:28.810Z,59.90
2019-06-08T00:40:57.342Z,60.00
2019-06-08T00:43:25.930Z,59.90
2019-06-08T00:46:00.677Z,59.90
2019-06-08T00:48:32.051Z,59.90
2019-06-08T00:51:00.615Z,59.90
2019-06-08T00:53:29.613Z,59.90
2019-06-08T00:56:03.704Z,59.90
2019-06-08T00:58:32.273Z,59.90
2019-06-08T01:01:00.858Z,59.90
2019-06-08T01:03:33.051Z,59.90
2019-06-08T01:06:01.709Z,59.80
2019-06-08T01:08:31.871Z,59.80
2019-06-08T01:11:05.981Z,59.80
2019-06-08T01:13:34.709Z,59.80
2019-06-08T01:16:03.267Z,59.90
2019-06-08T01:18:31.790Z,59.90
2019-06-08T01:21:00.416Z,59.80
2019-06-08T01:23:31.912Z,59.80
2019-06-08T01:26:00.608Z,59.90
2019-06-08T01:28:30.263Z,59.80
2019-06-08T01:31:11.604Z,59.80
2019-06-08T01:33:49.165Z,59.80
2019-06-08T01:39:00.821Z,59.60
2019-06-08T01:41:29.621Z,59.70
2019-06-08T01:44:13.027Z,59.70
2019-06-08T01:46:41.634Z,60.40
2019-06-08T01:49:10.203Z,59.70
2019-06-08T01:51:38.821Z,59.80
2019-06-08T01:54:07.433Z,59.80
2019-06-08T01:56:36.013Z,59.80
2019-06-08T01:59:04.675Z,59.80
2019-06-08T02:01:36.072Z,59.80
2019-06-08T02:04:04.659Z,59.80
2019-06-08T02:06:53.126Z,59.80
2019-06-08T02:09:28.759Z,59.80
2019-06-08T02:11:57.265Z,59.80
2019-06-08T02:14:27.020Z,59.80
2019-06-08T02:19:35.341Z,59.90
2019-06-08T02:22:15.175Z,59.80
2019-06-08T02:24:44.600Z,59.80
2019-06-08T02:27:13.144Z,59.80
2019-06-08T02:29:43.980Z,59.70
2019-06-08T02:32:14.137Z,59.70
2019-06-08T02:34:42.704Z,59.80
2019-06-08T02:40:17.167Z,59.70
2019-06-08T02:42:45.669Z,59.70
2019-06-08T02:45:14.734Z,59.70
2019-06-08T02:47:43.294Z,59.70
2019-06-08T02:50:15.004Z,59.70
2019-06-08T02:55:35.673Z,59.70
2019-06-08T02:58:04.365Z,59.70
2019-06-08T03:00:46.410Z,59.80
2019-06-08T03:03:19.670Z,59.70
2019-06-08T03:05:52.845Z,59.80
2019-06-08T03:08:21.399Z,59.80
2019-06-08T03:10:51.747Z,59.80
2019-06-08T03:13:21.615Z,59.70
2019-06-08T03:15:50.182Z,59.80
2019-06-08T03:18:21.482Z,59.70
2019-06-08T03:20:51.765Z,59.70
2019-06-08T03:23:20.279Z,59.70
2019-06-08T03:25:53.301Z,59.70
2019-06-08T03:28:21.624Z,59.80
2019-06-08T03:30:54.555Z,59.80
2019-06-08T03:33:20.654Z,59.70
2019-06-08T03:35:56.810Z,59.70
2019-06-08T03:38:23.975Z,59.70
2019-06-08T03:40:52.573Z,59.80
2019-06-08T03:43:21.141Z,59.80
2019-06-08T03:45:49.718Z,59.80
2019-06-08T03:48:21.209Z,59.80
2019-06-08T03:50:49.789Z,59.80
2019-06-08T03:53:18.459Z,59.80
2019-06-08T03:55:53.176Z,59.80
2019-06-08T03:58:21.690Z,59.80
2019-06-08T04:00:50.362Z,59.70
2019-06-08T04:03:19.068Z,59.80
2019-06-08T04:05:50.039Z,59.70
2019-06-08T04:08:18.744Z,59.70
2019-06-08T04:10:50.216Z,59.80
2019-06-08T04:13:18.992Z,59.80
2019-06-08T04:15:47.612Z,59.80
2019-06-08T04:18:16.165Z,59.90
2019-06-08T04:20:51.556Z,59.80
2019-06-08T04:23:20.422Z,59.80
2019-06-08T04:25:52.104Z,59.80
2019-06-08T04:28:20.706Z,59.80
2019-06-08T04:30:51.384Z,59.80
2019-06-08T04:33:27.334Z,59.80
2019-06-08T04:35:57.918Z,59.80
2019-06-08T04:38:26.484Z,59.80
2019-06-08T04:40:57.783Z,59.80
2019-06-08T04:43:29.087Z,59.90
2019-06-08T04:46:01.969Z,60.00
2019-06-08T04:48:33.034Z,60.00
2019-06-08T04:51:01.768Z,60.00
2019-06-08T04:53:30.300Z,60.00
2019-06-08T04:55:58.959Z,60.00
2019-06-08T04:58:28.207Z,60.00
2019-06-08T05:00:56.792Z,60.00
2019-06-08T05:03:25.523Z,60.00
2019-06-08T05:05:55.180Z,59.90
2019-06-08T05:08:23.683Z,59.90
2019-06-08T05:10:52.245Z,59.90
2019-06-08T05:13:20.792Z,60.00
2019-06-08T05:15:50.280Z,60.00
2019-06-08T05:18:18.914Z,60.10
2019-06-08T05:20:49.351Z,60.00
2019-06-08T05:23:18.008Z,60.00
2019-06-08T05:25:47.226Z,60.00
2019-06-08T05:28:15.802Z,60.00
2019-06-08T05:30:45.246Z,60.00
2019-06-08T05:33:13.900Z,60.00
2019-06-08T05:35:43.441Z,60.00
2019-06-08T05:38:12.090Z,60.00
2019-06-08T05:40:41.514Z,60.00
2019-06-08T05:43:10.074Z,59.90
2019-06-08T05:45:39.584Z,60.00
2019-06-08T05:48:08.187Z,60.10
2019-06-08T05:50:36.782Z,60.20
2019-06-08T05:53:05.396Z,60.30
2019-06-08T05:55:33.983Z,60.40
2019-06-08T05:58:02.531Z,60.30
2019-06-08T06:00:31.092Z,60.40
2019-06-08T06:02:59.700Z,60.40
2019-06-08T06:05:28.298Z,60.30
2019-06-08T06:07:56.811Z,60.30
2019-06-08T06:10:34.254Z,60.30
2019-06-08T06:13:02.779Z,60.20
2019-06-08T06:15:31.287Z,60.20
2019-06-08T06:17:59.816Z,60.30
2019-06-08T06:20:28.410Z,60.30
2019-06-08T06:22:58.628Z,60.30
2019-06-08T06:25:30.058Z,60.30
2019-06-08T06:28:06.402Z,60.40
2019-06-08T06:30:39.773Z,60.40
2019-06-08T06:33:08.851Z,60.30
2019-06-08T06:35:37.325Z,60.30
2019-06-08T06:38:05.821Z,60.40
2019-06-08T06:40:35.175Z,60.60
2019-06-08T06:43:03.740Z,60.80
2019-06-08T06:45:36.783Z,60.70
2019-06-08T06:48:05.430Z,60.60
2019-06-08T06:50:56.602Z,60.60
2019-06-08T06:53:25.394Z,60.60
2019-06-08T06:56:01.304Z,60.50
2019-06-08T06:58:29.953Z,60.40
2019-06-08T07:00:58.616Z,60.30
2019-06-08T07:03:27.370Z,60.40
2019-06-08T07:05:55.954Z,60.60
2019-06-08T07:08:24.433Z,60.80
2019-06-08T07:10:53.513Z,60.90
2019-06-08T07:13:27.489Z,61.00
2019-06-08T07:15:58.102Z,60.90
2019-06-08T07:18:26.294Z,60.90
2019-06-08T07:20:54.902Z,61.00
2019-06-08T07:23:32.381Z,60.90
2019-06-08T07:26:00.997Z,60.80
2019-06-08T07:28:29.565Z,60.70
2019-06-08T07:31:06.497Z,60.60
2019-06-08T07:33:35.094Z,60.40
2019-06-08T07:36:03.585Z,59.90
2019-06-08T07:38:32.096Z,59.60
2019-06-08T07:41:01.800Z,59.50
2019-06-08T07:43:30.480Z,59.40
2019-06-08T07:45:58.974Z,59.60
2019-06-08T07:48:27.581Z,59.80
2019-06-08T07:50:56.460Z,59.80
2019-06-08T07:53:25.053Z,59.70
2019-06-08T07:55:53.592Z,59.50
2019-06-08T07:58:22.103Z,59.20
2019-06-08T08:00:52.975Z,59.20
2019-06-08T08:03:20.962Z,59.30
2019-06-08T08:05:50.371Z,59.50
2019-06-08T08:08:19.040Z,59.70
2019-06-08T08:10:48.322Z,59.90
2019-06-08T08:13:16.901Z,60.10
2019-06-08T08:15:45.579Z,60.10
2019-06-08T08:18:14.369Z,60.20
2019-06-08T08:20:43.505Z,60.10
2019-06-08T08:23:34.721Z,60.00
2019-06-08T08:26:03.200Z,60.00
2019-06-08T08:28:31.791Z,60.00
2019-06-08T08:31:01.803Z,59.80
2019-06-08T08:33:30.681Z,59.60
2019-06-08T08:36:01.741Z,59.40
2019-06-08T08:38:29.443Z,59.30
2019-06-08T08:41:04.649Z,59.50
2019-06-08T08:43:28.251Z,59.50
2019-06-08T08:45:59.088Z,59.30
2019-06-08T08:48:30.931Z,59.00
2019-06-08T08:51:00.795Z,58.80
2019-06-08T08:53:30.365Z,58.70
2019-06-08T08:56:02.067Z,58.60
2019-06-08T08:58:29.141Z,58.80
2019-06-08T09:01:00.204Z,58.80
2019-06-08T09:03:33.102Z,58.60
2019-06-08T09:06:01.346Z,58.30
2019-06-08T09:08:29.779Z,58.30
2019-06-08T09:11:01.989Z,58.20
2019-06-08T09:13:28.999Z,58.00
2019-06-08T09:16:00.192Z,57.70
2019-06-08T09:18:28.700Z,57.50
2019-06-08T09:21:00.424Z,57.60
2019-06-08T09:23:28.114Z,57.80
2019-06-08T09:26:04.273Z,58.10
2019-06-08T09:28:28.485Z,58.30
2019-06-08T09:31:00.295Z,58.60
2019-06-08T09:33:28.821Z,58.70
2019-06-08T09:35:59.759Z,58.70
2019-06-08T09:38:28.691Z,58.70
2019-06-08T09:41:01.239Z,58.50
2019-06-08T09:43:28.917Z,58.40
2019-06-08T09:46:00.526Z,58.10
2019-06-08T09:48:28.804Z,57.70
2019-06-08T09:50:59.859Z,57.30
2019-06-08T09:53:37.567Z,57.30
2019-06-08T09:56:06.614Z,57.50
2019-06-08T09:58:34.445Z,57.70
2019-06-08T10:01:05.723Z,57.70
2019-06-08T10:03:33.201Z,57.60
2019-06-08T10:06:07.799Z,57.80
2019-06-08T10:08:32.017Z,57.80
2019-06-08T10:11:03.252Z,57.90
2019-06-08T10:13:30.752Z,58.00
2019-06-08T10:16:04.996Z,57.80
2019-06-08T10:18:30.570Z,57.60
2019-06-08T10:21:01.211Z,57.40
2019-06-08T10:23:34.165Z,57.20
2019-06-08T10:26:01.306Z,56.90
2019-06-08T10:28:29.826Z,56.60
2019-06-08T10:31:01.175Z,56.60
2019-06-08T10:33:28.596Z,56.60
2019-06-08T10:36:00.648Z,56.60
2019-06-08T10:38:28.971Z,56.40
2019-06-08T10:41:06.455Z,56.60
2019-06-08T10:43:30.704Z,56.70
2019-06-08T10:46:02.875Z,56.90
2019-06-08T10:48:29.939Z,57.10
2019-06-08T10:51:01.341Z,57.20
2019-06-08T10:53:45.155Z,57.10
2019-06-08T10:55:59.807Z,57.20
2019-06-08T10:58:29.156Z,57.40
2019-06-08T11:01:02.179Z,57.40
2019-06-08T11:03:30.674Z,57.30
2019-06-08T11:06:00.833Z,56.90
2019-06-08T11:08:29.372Z,56.60
2019-06-08T11:10:59.451Z,56.30
2019-06-08T11:13:28.363Z,56.40
2019-06-08T11:15:58.659Z,56.60
2019-06-08T11:18:28.675Z,57.10
2019-06-08T11:20:59.514Z,57.40
2019-06-08T11:23:30.341Z,57.50
2019-06-08T11:26:03.737Z,57.50
2019-06-08T11:28:29.220Z,57.60
2019-06-08T11:30:57.800Z,58.20
2019-06-08T11:33:30.313Z,58.70
2019-06-08T11:36:04.142Z,58.90
2019-06-08T11:38:31.425Z,59.40
2019-06-08T11:43:39.020Z,59.90
2019-06-08T11:46:32.647Z,60.60
2019-06-08T11:49:04.266Z,61.00
2019-06-08T11:51:40.303Z,60.90
2019-06-08T11:54:27.299Z,60.80
2019-06-08T11:56:42.789Z,60.20
2019-06-08T11:59:17.613Z,59.90
2019-06-08T12:01:53.215Z,59.60
2019-06-08T12:04:30.013Z,59.10
2019-06-08T12:06:59.555Z,58.60
2019-06-08T12:09:30.867Z,58.30
2019-06-08T12:11:59.494Z,58.20
2019-06-08T12:14:29.951Z,58.40
2019-06-08T12:17:05.198Z,58.50
2019-06-08T12:19:37.779Z,58.60
2019-06-08T12:22:08.790Z,58.70
2019-06-08T12:24:48.930Z,58.80
2019-06-08T12:27:26.668Z,59.30
2019-06-08T12:29:50.109Z,59.30
2019-06-08T12:32:18.379Z,59.30
2019-06-08T12:34:47.089Z,59.30
2019-06-08T12:37:19.610Z,59.40
2019-06-08T12:39:45.893Z,59.50
2019-06-08T12:42:20.035Z,59.40
2019-06-08T12:44:44.625Z,59.50
2019-06-08T12:47:16.319Z,59.60
2019-06-08T12:49:43.419Z,59.50
2019-06-08T12:52:14.213Z,59.00
2019-06-08T12:54:56.448Z,59.20
2019-06-08T12:57:15.451Z,59.40
2019-06-08T12:59:45.502Z,59.80
2019-06-08T13:02:16.558Z,59.70
2019-06-08T13:04:43.811Z,59.60
2019-06-08T13:07:13.149Z,59.80
2019-06-08T13:09:41.856Z,59.70
2019-06-08T13:12:11.435Z,59.30
2019-06-08T13:14:39.962Z,59.20
2019-06-08T13:17:09.997Z,59.00
2019-06-08T13:19:38.912Z,59.00
2019-06-08T13:22:08.806Z,59.40
2019-06-08T13:24:37.809Z,59.80
2019-06-08T13:27:06.739Z,59.80
2019-06-08T13:29:35.348Z,59.80
2019-06-08T13:32:03.988Z,59.60
2019-06-08T13:34:32.533Z,59.70
2019-06-08T13:37:01.053Z,59.60
2019-06-08T13:39:29.608Z,59.10
2019-06-08T13:41:58.172Z,58.90
2019-06-08T13:44:27.879Z,58.70
2019-06-08T13:46:57.843Z,57.80
2019-06-08T13:49:29.667Z,56.70
2019-06-08T13:51:58.431Z,56.30
2019-06-08T13:54:30.847Z,55.40
2019-06-08T13:56:59.044Z,55.50
2019-06-08T13:59:30.685Z,55.40
2019-06-08T14:01:58.109Z,55.40
2019-06-08T14:04:26.642Z,55.20
2019-06-08T14:06:57.723Z,54.90
2019-06-08T14:09:25.429Z,54.30
2019-06-08T14:11:53.914Z,53.30
2019-06-08T14:14:23.057Z,53.30
2019-06-08T14:16:52.826Z,52.80
2019-06-08T14:19:23.269Z,52.40
2019-06-08T14:21:51.679Z,51.60
2019-06-08T14:24:24.613Z,51.80
2019-06-08T14:26:50.490Z,52.40
2019-06-08T14:29:21.172Z,52.70
2019-06-08T14:31:49.267Z,52.40
2019-06-08T14:34:20.113Z,51.40
2019-06-08T14:36:48.851Z,50.60
2019-06-08T14:39:18.812Z,50.30
2019-06-08T14:41:49.437Z,50.70
2019-06-08T14:44:19.861Z,49.50
2019-06-08T14:46:48.400Z,47.60
2019-06-08T14:49:18.722Z,48.40
2019-06-08T14:51:50.534Z,48.20
2019-06-08T14:54:24.356Z,47.60
2019-06-08T14:56:49.704Z,47.10
2019-06-08T14:59:19.885Z,47.20
2019-06-08T15:01:49.052Z,47.80
2019-06-08T15:04:19.286Z,47.10
2019-06-08T15:06:49.588Z,46.30
2019-06-08T15:09:19.318Z,45.70
2019-06-08T15:11:48.139Z,45.10
2019-06-08T15:14:16.889Z,45.20
2019-06-08T15:16:45.438Z,45.60
2019-06-08T15:19:13.961Z,45.10
2019-06-08T15:21:42.636Z,44.40
2019-06-08T15:24:11.170Z,44.00
2019-06-08T15:26:44.991Z,43.60
2019-06-08T15:29:09.907Z,42.80
2019-06-08T15:31:40.093Z,41.70
2019-06-08T15:34:10.668Z,42.10
2019-06-08T15:36:38.875Z,44.00
2019-06-08T15:39:07.968Z,47.10
2019-06-08T15:41:38.216Z,49.30
2019-06-08T15:44:12.441Z,50.40
2019-06-08T15:46:41.187Z,51.60
2019-06-08T15:49:11.041Z,52.20
2019-06-08T15:51:40.724Z,52.60
2019-06-08T15:54:09.352Z,52.70
2019-06-08T15:56:48.357Z,51.60
2019-06-08T15:59:09.697Z,48.30
2019-06-08T16:01:38.228Z,45.30
2019-06-08T16:04:06.909Z,43.60
2019-06-08T16:06:35.506Z,42.90
2019-06-08T16:09:07.054Z,42.30
2019-06-08T16:11:35.702Z,42.20
2019-06-08T16:14:04.434Z,42.30
2019-06-08T16:16:33.459Z,42.10
2019-06-08T16:19:02.070Z,42.10
2019-06-08T16:21:31.748Z,41.80
2019-06-08T16:24:03.085Z,41.80
2019-06-08T16:26:31.776Z,41.50
2019-06-08T16:29:00.368Z,41.10
2019-06-08T16:31:33.712Z,40.40
2019-06-08T16:34:02.353Z,40.60
2019-06-08T16:36:36.771Z,40.60
2019-06-08T16:39:08.784Z,42.00
2019-06-08T16:41:37.417Z,41.50
2019-06-08T16:44:07.136Z,41.10
2019-06-08T16:46:36.540Z,43.40
2019-06-08T16:49:05.263Z,42.90
2019-06-08T16:51:34.152Z,42.00
2019-06-08T16:54:02.690Z,42.30
2019-06-08T16:56:31.969Z,43.30
2019-06-08T16:59:00.615Z,43.00
2019-06-08T17:01:30.771Z,44.40
2019-06-08T17:03:59.473Z,46.20
2019-06-08T17:06:29.014Z,47.70
2019-06-08T17:08:58.069Z,48.80
2019-06-08T17:11:26.629Z,49.60
2019-06-08T17:13:59.641Z,50.40
2019-06-08T17:16:28.241Z,51.60
2019-06-08T17:18:56.759Z,50.90
2019-06-08T17:21:25.377Z,50.80
2019-06-08T17:23:53.931Z,50.40
2019-06-08T17:26:22.459Z,50.40
2019-06-08T17:28:51.126Z,50.30
2019-06-08T17:31:19.707Z,50.10
2019-06-08T17:33:48.255Z,49.90
2019-06-08T17:36:16.825Z,49.90
2019-06-08T17:38:45.353Z,50.10
2019-06-08T17:41:13.864Z,49.70
2019-06-08T17:43:42.558Z,49.50
2019-06-08T17:46:11.064Z,50.00
2019-06-08T17:48:40.627Z,50.00
2019-06-08T17:51:09.297Z,50.30
2019-06-08T17:53:39.083Z,50.40
2019-06-08T17:56:07.698Z,50.50
2019-06-08T17:58:37.264Z,50.10
2019-06-08T18:01:07.988Z,50.20
2019-06-08T18:03:38.405Z,50.30
2019-06-08T18:06:07.354Z,50.50
2019-06-08T18:08:40.497Z,50.40
2019-06-08T18:11:08.089Z,50.50
2019-06-08T18:13:42.205Z,50.60
2019-06-08T18:16:09.404Z,50.70
2019-06-08T18:18:48.062Z,50.80
2019-06-08T18:21:17.740Z,51.00
2019-06-08T18:23:48.125Z,51.00
2019-06-08T18:26:17.233Z,50.90
2019-06-08T18:29:01.858Z,51.10
2019-06-08T18:31:30.442Z,51.20
2019-06-08T18:34:01.981Z,51.30
2019-06-08T18:36:31.781Z,51.30
2019-06-08T18:39:00.288Z,51.30
2019-06-08T18:41:28.841Z,51.50
2019-06-08T18:43:58.333Z,51.40
2019-06-08T18:46:27.249Z,51.50
2019-06-08T18:48:57.885Z,51.50
2019-06-08T18:51:28.080Z,51.60
2019-06-08T18:54:10.438Z,51.70
2019-06-08T18:56:31.612Z,51.70
2019-06-08T18:59:00.218Z,51.80
2019-06-08T19:01:30.475Z,51.90
2019-06-08T19:03:59.166Z,51.80
2019-06-08T19:06:29.364Z,51.80
2019-06-08T19:08:58.143Z,51.80
2019-06-08T19:11:28.598Z,51.90
2019-06-08T19:14:00.376Z,52.00
2019-06-08T19:16:28.512Z,52.10
2019-06-08T19:19:04.269Z,52.10
2019-06-08T19:21:32.777Z,52.70
2019-06-08T19:24:04.107Z,52.20
2019-06-08T19:26:34.457Z,52.20
2019-06-08T19:29:08.388Z,52.30
2019-06-08T19:31:38.975Z,52.40
2019-06-08T19:34:07.637Z,52.40
2019-06-08T19:36:39.968Z,52.40
2019-06-08T19:39:09.728Z,52.50
2019-06-08T19:41:41.021Z,52.70
2019-06-08T19:44:10.072Z,52.70
2019-06-08T19:46:38.611Z,52.70
2019-06-08T19:49:10.373Z,52.80
2019-06-08T19:51:40.265Z,52.90
2019-06-08T19:54:12.151Z,53.00
2019-06-08T19:56:41.800Z,53.00
2019-06-08T19:59:17.713Z,53.10
2019-06-08T20:01:51.324Z,53.20
2019-06-08T20:04:20.509Z,53.20
2019-06-08T20:06:53.463Z,53.30
2019-06-08T20:09:28.355Z,53.30
2019-06-08T20:12:00.177Z,53.30
2019-06-08T20:14:34.162Z,53.40
2019-06-08T20:17:02.801Z,53.50
2019-06-08T20:19:37.329Z,53.60
2019-06-08T20:22:07.551Z,53.60
2019-06-08T20:24:37.743Z,53.70
2019-06-08T20:27:10.260Z,53.70
2019-06-08T20:29:41.280Z,53.80
2019-06-08T20:32:14.233Z,53.90
2019-06-08T20:34:49.706Z,53.90
2019-06-08T20:37:48.290Z,53.90
2019-06-08T20:40:07.202Z,54.00
2019-06-08T20:42:28.938Z,54.10
2019-06-08T20:45:00.542Z,54.00
2019-06-08T20:47:36.772Z,54.10
2019-06-08T20:50:14.295Z,54.10
2019-06-08T20:52:42.923Z,54.10
2019-06-08T20:55:11.436Z,54.20
2019-06-08T20:57:41.633Z,54.20
2019-06-08T21:00:14.518Z,54.30
2019-06-08T21:02:53.582Z,54.30
2019-06-08T21:05:24.267Z,54.30
2019-06-08T21:07:54.486Z,54.40
2019-06-08T21:10:55.762Z,54.40
2019-06-08T21:13:21.863Z,54.40
2019-06-08T21:16:00.393Z,54.40
2019-06-08T21:18:27.469Z,54.40
2019-06-08T21:20:59.194Z,54.50
2019-06-08T21:23:28.141Z,54.40
2019-06-08T21:26:00.076Z,54.50
2019-06-08T21:28:34.754Z,54.50
2019-06-08T21:31:12.236Z,54.60
2019-06-08T21:33:40.786Z,54.60
2019-06-08T21:36:11.889Z,54.70
2019-06-08T21:38:40.564Z,54.80
2019-06-08T21:41:09.328Z,54.70
2019-06-08T21:43:37.835Z,54.80
2019-06-08T21:46:21.275Z,54.80
2019-06-08T21:48:41.054Z,54.80
2019-06-08T21:51:09.667Z,54.80
2019-06-08T21:53:38.379Z,54.80
2019-06-08T21:56:09.479Z,55.40
2019-06-08T21:58:38.162Z,54.80
2019-06-08T22:01:07.448Z,54.80
2019-06-08T22:03:38.128Z,55.50
2019-06-08T22:06:07.869Z,54.90
2019-06-08T22:08:37.605Z,54.90
2019-06-08T22:11:08.665Z,54.90
2019-06-08T22:13:37.466Z,55.00
2019-06-08T22:16:08.087Z,55.00
2019-06-08T22:18:38.010Z,55.00
2019-06-08T22:21:08.108Z,55.00
2019-06-08T22:23:36.844Z,55.10
2019-06-08T22:26:08.102Z,55.10
2019-06-08T22:28:37.699Z,55.10
2019-06-08T22:31:07.970Z,55.20
2019-06-08T22:33:37.795Z,55.20
2019-06-08T22:36:08.925Z,55.20
2019-06-08T22:38:37.370Z,55.30
2019-06-08T22:41:07.966Z,55.30
2019-06-08T22:43:37.436Z,55.30
2019-06-08T22:46:08.284Z,55.30
2019-06-08T22:48:38.403Z,55.40
2019-06-08T22:51:08.128Z,55.30
2019-06-08T22:53:38.377Z,55.40
2019-06-08T22:56:07.936Z,55.30
2019-06-08T22:58:37.281Z,55.40
2019-06-08T23:01:08.661Z,55.40
2019-06-08T23:03:36.214Z,55.50
2019-06-08T23:06:08.163Z,55.50
2019-06-08T23:08:37.328Z,55.50
2019-06-08T23:11:08.123Z,55.60
2019-06-08T23:13:37.516Z,55.50
2019-06-08T23:16:08.567Z,55.60
2019-06-08T23:18:37.329Z,55.70
2019-06-08T23:21:08.690Z,55.70
2019-06-08T23:23:38.050Z,55.70
2019-06-08T23:26:10.143Z,55.70
2019-06-08T23:28:37.714Z,55.80
2019-06-08T23:31:19.411Z,55.80
2019-06-08T23:33:38.707Z,55.80
2019-06-08T23:36:39.545Z,55.80
2019-06-08T23:38:37.439Z,55.90
2019-06-08T23:41:08.743Z,55.90
2019-06-08T23:43:38.322Z,55.90
2019-06-08T23:46:06.909Z,55.90
2019-06-08T23:48:37.417Z,55.90
2019-06-08T23:51:09.203Z,55.90
2019-06-08T23:53:38.202Z,55.90
2019-06-08T23:56:10.171Z,56.00
2019-06-08T23:58:37.202Z,56.00
